createdAt,value
2022-09-02T00:01:30.415Z,5.89
2022-09-02T00:04:03.240Z,5.90
2022-09-02T00:06:31.610Z,5.86
2022-09-02T00:08:59.717Z,5.87
2022-09-02T00:11:29.144Z,5.82
2022-09-02T00:13:57.274Z,5.79
2022-09-02T00:16:25.306Z,5.75
2022-09-02T00:18:53.688Z,5.74
2022-09-02T00:21:22.069Z,5.71
2022-09-02T00:23:49.522Z,5.62
2022-09-02T00:26:17.253Z,5.61
2022-09-02T00:28:51.219Z,5.58
2022-09-02T00:31:23.642Z,5.54
2022-09-02T00:33:51.846Z,5.52
2022-09-02T00:36:18.921Z,5.48
2022-09-02T00:38:46.405Z,5.45
2022-09-02T00:41:14.007Z,5.42
2022-09-02T00:43:45.408Z,5.39
2022-09-02T00:46:14.686Z,5.33
2022-09-02T00:48:56.012Z,5.32
2022-09-02T00:51:24.508Z,5.32
2022-09-02T00:53:51.656Z,5.28
2022-09-02T00:56:26.791Z,5.26
2022-09-02T00:58:55.882Z,5.25
2022-09-02T01:01:23.281Z,5.21
2022-09-02T01:03:51.043Z,5.18
2022-09-02T01:06:24.468Z,5.16
2022-09-02T01:09:07.498Z,5.16
2022-09-02T01:11:48.089Z,5.15
2022-09-02T01:14:16.723Z,5.09
2022-09-02T01:16:50.839Z,5.05
2022-09-02T01:19:49.797Z,5.00
2022-09-02T01:22:18.478Z,4.95
2022-09-02T01:24:45.452Z,4.95
2022-09-02T01:27:16.333Z,4.94
2022-09-02T01:29:43.801Z,4.92
2022-09-02T01:32:12.151Z,4.88
2022-09-02T01:34:38.968Z,4.86
2022-09-02T01:37:06.091Z,4.83
2022-09-02T01:39:33.306Z,4.78
2022-09-02T01:42:01.148Z,4.75
2022-09-02T01:44:28.476Z,4.73
2022-09-02T01:46:56.080Z,4.73
2022-09-02T01:49:23.686Z,4.74
2022-09-02T01:51:54.834Z,4.74
2022-09-02T01:54:23.132Z,4.72
2022-09-02T01:56:50.003Z,4.72
2022-09-02T01:59:18.139Z,4.71
2022-09-02T02:01:46.053Z,4.71
2022-09-02T02:04:13.649Z,4.70
2022-09-02T02:06:42.965Z,4.68
2022-09-02T02:09:11.605Z,4.66
2022-09-02T02:11:39.202Z,4.57
2022-09-02T02:14:06.422Z,4.59
2022-09-02T02:16:33.297Z,4.56
2022-09-02T02:19:00.294Z,4.54
2022-09-02T02:21:27.546Z,4.52
2022-09-02T02:23:55.159Z,4.52
2022-09-02T02:26:21.946Z,4.50
2022-09-02T02:28:49.317Z,4.49
2022-09-02T02:31:16.256Z,4.50
2022-09-02T02:33:43.133Z,4.47
2022-09-02T02:36:10.680Z,4.43
2022-09-02T02:38:38.443Z,4.41
2022-09-02T02:41:06.553Z,4.37
2022-09-02T02:43:36.999Z,4.36
2022-09-02T02:46:04.974Z,4.36
2022-09-02T02:48:33.357Z,4.33
2022-09-02T02:51:00.639Z,4.30
2022-09-02T02:53:29.726Z,4.26
2022-09-02T02:55:57.204Z,4.26
2022-09-02T02:58:24.378Z,4.22
2022-09-02T03:00:52.104Z,4.17
2022-09-02T03:03:19.930Z,4.16
2022-09-02T03:05:47.681Z,4.17
2022-09-02T03:08:15.821Z,4.12
2022-09-02T03:10:44.311Z,4.10
2022-09-02T03:13:12.128Z,4.07
2022-09-02T03:15:39.741Z,4.05
2022-09-02T03:18:07.275Z,4.03
2022-09-02T03:20:35.223Z,4.00
2022-09-02T03:23:02.230Z,3.98
2022-09-02T03:25:35.865Z,3.93
2022-09-02T03:28:04.275Z,3.92
2022-09-02T03:30:32.432Z,3.94
2022-09-02T03:33:04.058Z,3.95
2022-09-02T03:35:33.219Z,3.91
2022-09-02T03:38:01.210Z,3.91
2022-09-02T03:40:28.744Z,3.91
2022-09-02T03:43:00.198Z,3.92
2022-09-02T03:45:28.086Z,3.88
2022-09-02T03:47:55.217Z,3.86
2022-09-02T03:50:25.981Z,3.83
2022-09-02T03:52:53.680Z,3.86
2022-09-02T03:55:20.870Z,3.90
2022-09-02T03:57:48.331Z,3.97
2022-09-02T04:00:17.823Z,4.08
2022-09-02T04:02:44.874Z,4.16
2022-09-02T04:05:17.133Z,4.22
2022-09-02T04:07:47.138Z,4.27
2022-09-02T04:10:15.408Z,4.28
2022-09-02T04:12:42.652Z,4.30
2022-09-02T04:15:12.055Z,4.34
2022-09-02T04:17:41.223Z,4.44
2022-09-02T04:20:11.622Z,4.62
2022-09-02T04:22:38.537Z,4.92
2022-09-02T04:25:06.761Z,5.32
2022-09-02T04:27:35.277Z,5.71
2022-09-02T04:30:02.297Z,6.11
2022-09-02T04:32:29.343Z,6.66
2022-09-02T04:34:57.341Z,7.20
2022-09-02T04:37:24.311Z,7.74
2022-09-02T04:39:52.757Z,8.24
2022-09-02T04:42:19.961Z,8.71
2022-09-02T04:44:46.920Z,9.23
2022-09-02T04:47:13.756Z,9.66
2022-09-02T04:49:43.276Z,9.97
2022-09-02T04:52:10.709Z,10.31
2022-09-02T04:54:37.800Z,10.77
2022-09-02T04:57:05.127Z,11.34
2022-09-02T04:59:36.506Z,12.06
2022-09-02T05:02:05.229Z,12.55
2022-09-02T05:04:33.603Z,13.03
2022-09-02T05:07:03.791Z,13.41
2022-09-02T05:09:31.735Z,13.86
2022-09-02T05:11:58.827Z,14.26
2022-09-02T05:14:26.004Z,14.69
2022-09-02T05:16:54.095Z,15.29
2022-09-02T05:19:23.509Z,15.95
2022-09-02T05:21:55.340Z,16.58
2022-09-02T05:24:26.413Z,17.04
2022-09-02T05:26:53.938Z,17.52
2022-09-02T05:29:21.142Z,18.00
2022-09-02T05:31:48.920Z,18.46
2022-09-02T05:34:17.148Z,18.64
2022-09-02T05:36:44.619Z,18.49
2022-09-02T05:39:11.827Z,18.79
2022-09-02T05:41:38.904Z,19.28
2022-09-02T05:44:07.020Z,19.48
2022-09-02T05:46:35.015Z,19.72
2022-09-02T05:49:17.714Z,20.24
2022-09-02T05:51:49.377Z,20.72
2022-09-02T05:54:23.084Z,20.76
2022-09-02T05:56:54.060Z,20.38
2022-09-02T05:59:22.580Z,20.46
2022-09-02T06:01:50.122Z,20.70
2022-09-02T06:04:18.330Z,20.91
2022-09-02T06:06:45.938Z,21.12
2022-09-02T06:09:16.434Z,20.72
2022-09-02T06:11:45.736Z,20.59
2022-09-02T06:14:14.179Z,20.14
2022-09-02T06:16:42.688Z,19.61
2022-09-02T06:19:10.086Z,19.05
2022-09-02T06:21:38.384Z,18.70
2022-09-02T06:24:11.440Z,18.80
2022-09-02T06:26:39.895Z,19.30
2022-09-02T06:29:08.074Z,19.70
2022-09-02T06:31:35.931Z,20.37
2022-09-02T06:34:04.891Z,20.62
2022-09-02T06:36:31.949Z,20.72
2022-09-02T06:39:00.329Z,20.70
2022-09-02T06:41:30.301Z,21.13
2022-09-02T06:44:00.095Z,21.04
2022-09-02T06:46:37.753Z,21.43
2022-09-02T06:49:07.193Z,21.69
2022-09-02T06:51:41.127Z,22.07
2022-09-02T06:54:11.547Z,22.73
2022-09-02T06:56:44.884Z,22.86
2022-09-02T06:59:15.821Z,22.66
2022-09-02T07:01:44.290Z,22.38
2022-09-02T07:04:30.472Z,22.25
2022-09-02T07:06:58.199Z,23.09
2022-09-02T07:09:31.452Z,24.10
2022-09-02T07:12:05.094Z,24.98
2022-09-02T07:14:40.896Z,25.58
2022-09-02T07:17:10.192Z,25.91
2022-09-02T07:19:37.950Z,26.40
2022-09-02T07:22:06.350Z,27.03
2022-09-02T07:24:33.512Z,27.47
2022-09-02T07:27:00.467Z,27.64
2022-09-02T07:29:27.411Z,27.11
2022-09-02T07:31:54.801Z,26.71
2022-09-02T07:34:22.070Z,26.64
2022-09-02T07:36:49.181Z,26.75
2022-09-02T07:39:18.070Z,27.28
2022-09-02T07:41:48.304Z,27.67
2022-09-02T07:44:16.384Z,27.66
2022-09-02T07:46:44.443Z,27.71
2022-09-02T07:49:15.747Z,27.49
2022-09-02T07:51:49.161Z,27.18
2022-09-02T07:54:18.974Z,26.98
2022-09-02T07:56:45.885Z,27.14
2022-09-02T07:59:12.820Z,27.27
2022-09-02T08:01:40.399Z,27.34
2022-09-02T08:04:07.312Z,26.72
2022-09-02T08:06:35.098Z,26.34
2022-09-02T08:09:05.459Z,25.89
2022-09-02T08:11:35.435Z,25.75
2022-09-02T08:14:03.255Z,25.79
2022-09-02T08:16:30.866Z,25.79
2022-09-02T08:18:58.436Z,25.52
2022-09-02T08:21:27.955Z,25.20
2022-09-02T08:23:55.297Z,24.76
2022-09-02T08:26:22.269Z,24.43
2022-09-02T08:28:50.230Z,24.49
2022-09-02T08:31:17.376Z,25.05
2022-09-02T08:33:44.924Z,25.36
2022-09-02T08:36:14.821Z,25.65
2022-09-02T08:38:42.896Z,26.12
2022-09-02T08:41:24.009Z,26.26
2022-09-02T08:43:54.039Z,26.24
2022-09-02T08:46:26.067Z,25.82
2022-09-02T08:48:59.559Z,25.56
2022-09-02T08:51:56.385Z,25.49
2022-09-02T08:54:48.687Z,25.64
2022-09-02T08:57:15.680Z,25.90
2022-09-02T08:59:44.202Z,25.85
2022-09-02T09:02:56.798Z,25.61
2022-09-02T09:05:34.409Z,25.78
2022-09-02T09:08:14.643Z,26.15
2022-09-02T09:11:12.848Z,26.70
2022-09-02T09:14:10.509Z,27.26
2022-09-02T09:16:57.046Z,27.50
2022-09-02T09:19:47.589Z,28.15
2022-09-02T09:22:18.736Z,28.80
2022-09-02T09:24:50.185Z,28.73
2022-09-02T09:27:22.552Z,28.62
2022-09-02T09:29:51.591Z,28.04
2022-09-02T09:32:33.634Z,27.88
2022-09-02T09:35:09.125Z,27.72
2022-09-02T09:37:38.577Z,27.35
2022-09-02T09:40:21.165Z,27.11
2022-09-02T09:42:53.170Z,27.52
2022-09-02T09:45:27.944Z,27.83
2022-09-02T09:48:28.015Z,27.97
2022-09-02T09:50:57.641Z,27.86
2022-09-02T09:53:30.407Z,27.71
2022-09-02T09:56:01.700Z,26.95
2022-09-02T09:58:49.748Z,26.78
2022-09-02T10:01:35.815Z,26.69
2022-09-02T10:04:42.268Z,26.58
2022-09-02T10:06:57.945Z,26.10
2022-09-02T10:09:35.033Z,25.79
2022-09-02T10:12:05.181Z,25.85
2022-09-02T10:14:53.489Z,26.13
2022-09-02T10:17:48.349Z,26.42
2022-09-02T10:20:48.669Z,26.73
2022-09-02T10:23:36.666Z,26.98
2022-09-02T10:29:07.206Z,27.02
2022-09-02T10:31:55.988Z,26.81
2022-09-02T10:34:44.097Z,26.39
2022-09-02T10:37:27.155Z,25.45
2022-09-02T10:40:09.408Z,25.02
2022-09-02T10:43:04.632Z,24.81
2022-09-02T10:45:35.439Z,24.68
2022-09-02T10:48:20.469Z,24.40
2022-09-02T10:50:56.211Z,24.22
2022-09-02T10:53:29.404Z,23.75
2022-09-02T10:56:06.665Z,23.37
2022-09-02T10:58:33.663Z,23.38
2022-09-02T11:01:00.635Z,23.53
2022-09-02T11:03:39.214Z,23.58
2022-09-02T11:06:19.652Z,23.43
2022-09-02T11:08:57.737Z,23.13
2022-09-02T11:11:37.316Z,23.16
2022-09-02T11:14:20.990Z,23.45
2022-09-02T11:16:55.160Z,23.71
2022-09-02T11:19:59.832Z,23.79
2022-09-02T11:22:48.735Z,23.87
2022-09-02T11:25:29.568Z,23.90
2022-09-02T11:28:29.205Z,23.80
2022-09-02T11:31:00.480Z,23.72
2022-09-02T11:33:43.479Z,23.57
2022-09-02T11:36:11.500Z,23.26
2022-09-02T11:38:56.207Z,23.15
2022-09-02T11:41:35.815Z,23.08
2022-09-02T11:44:22.174Z,22.85
2022-09-02T11:47:29.399Z,22.83
2022-09-02T11:50:33.705Z,23.10
2022-09-02T11:53:30.977Z,23.22
2022-09-02T11:56:18.369Z,22.87
2022-09-02T11:58:53.277Z,22.41
2022-09-02T12:01:43.648Z,22.31
2022-09-02T12:04:56.054Z,22.28
2022-09-02T12:07:08.969Z,22.05
2022-09-02T12:09:49.836Z,22.06
2022-09-02T12:12:39.061Z,22.18
2022-09-02T12:15:06.687Z,22.39
2022-09-02T12:17:40.574Z,22.48
2022-09-02T12:20:29.085Z,22.34
2022-09-02T12:22:56.244Z,22.08
2022-09-02T12:25:26.982Z,21.69
2022-09-02T12:28:18.813Z,21.44
2022-09-02T12:30:55.567Z,21.31
2022-09-02T12:33:51.912Z,21.06
2022-09-02T12:36:37.014Z,20.97
2022-09-02T12:39:30.763Z,20.89
2022-09-02T12:41:57.916Z,20.73
2022-09-02T12:45:04.719Z,20.77
2022-09-02T12:47:50.647Z,21.07
2022-09-02T12:50:28.516Z,21.32
2022-09-02T12:53:25.864Z,21.47
2022-09-02T12:56:13.056Z,21.59
2022-09-02T12:58:46.498Z,21.68
2022-09-02T13:01:19.681Z,21.79
2022-09-02T13:03:59.861Z,21.82
2022-09-02T13:06:47.728Z,21.69
2022-09-02T13:09:41.440Z,21.53
2022-09-02T13:12:45.876Z,21.34
2022-09-02T13:15:40.898Z,21.19
2022-09-02T13:18:26.467Z,20.92
2022-09-02T13:21:20.868Z,20.67
2022-09-02T13:24:10.334Z,20.66
2022-09-02T13:26:59.122Z,20.85
2022-09-02T13:29:56.548Z,21.09
2022-09-02T13:32:29.717Z,21.21
2022-09-02T13:35:01.265Z,20.94
2022-09-02T13:37:36.506Z,20.61
2022-09-02T13:40:26.371Z,20.34
2022-09-02T13:42:58.469Z,20.15
2022-09-02T13:45:35.606Z,20.00
2022-09-02T13:48:08.523Z,19.88
2022-09-02T13:50:37.424Z,19.87
2022-09-02T13:55:57.823Z,19.77
2022-09-02T13:58:31.414Z,19.75
2022-09-02T14:01:17.673Z,19.67
2022-09-02T14:03:56.915Z,19.60
2022-09-02T14:06:28.508Z,19.47
2022-09-02T14:09:05.055Z,19.37
2022-09-02T14:11:39.545Z,19.27
2022-09-02T14:14:07.075Z,19.22
2022-09-02T14:16:36.229Z,19.15
2022-09-02T14:19:24.376Z,19.17
2022-09-02T14:21:53.903Z,19.25
2022-09-02T14:24:22.295Z,19.23
2022-09-02T14:26:53.208Z,19.23
2022-09-02T14:29:21.608Z,19.21
2022-09-02T14:32:09.001Z,19.16
2022-09-02T14:34:47.157Z,19.15
2022-09-02T14:37:28.744Z,19.16
2022-09-02T14:40:12.690Z,19.21
2022-09-02T14:42:55.231Z,19.29
2022-09-02T14:45:30.752Z,19.35
2022-09-02T14:48:01.748Z,19.35
2022-09-02T14:50:36.539Z,19.28
2022-09-02T14:53:10.259Z,19.26
2022-09-02T14:55:45.736Z,19.21
2022-09-02T14:58:12.733Z,19.15
2022-09-02T15:00:39.795Z,19.13
2022-09-02T15:03:07.660Z,19.09
2022-09-02T15:05:34.559Z,19.09
2022-09-02T15:08:01.664Z,19.04
2022-09-02T15:10:28.475Z,19.00
2022-09-02T15:12:57.619Z,18.93
2022-09-02T15:15:25.130Z,18.78
2022-09-02T15:17:51.932Z,18.76
2022-09-02T15:20:18.853Z,18.70
2022-09-02T15:22:45.843Z,18.66
2022-09-02T15:25:12.840Z,18.65
2022-09-02T15:27:39.674Z,18.64
2022-09-02T15:30:09.372Z,18.65
2022-09-02T15:32:37.770Z,18.64
2022-09-02T15:35:06.947Z,18.64
2022-09-02T15:37:38.167Z,18.61
2022-09-02T15:40:07.934Z,18.60
2022-09-02T15:42:36.723Z,18.60
2022-09-02T15:45:05.897Z,18.60
2022-09-02T15:47:35.673Z,18.57
2022-09-02T15:50:03.648Z,18.55
2022-09-02T15:52:30.441Z,18.51
2022-09-02T15:54:57.235Z,18.49
2022-09-02T15:57:24.291Z,18.47
2022-09-02T15:59:51.581Z,18.45
2022-09-02T16:02:18.469Z,18.43
2022-09-02T16:04:45.586Z,18.42
2022-09-02T16:07:15.379Z,18.37
2022-09-02T16:09:44.483Z,18.30
2022-09-02T16:12:11.530Z,18.28
2022-09-02T16:14:38.456Z,18.25
2022-09-02T16:17:05.347Z,18.23
2022-09-02T16:19:32.334Z,18.23
2022-09-02T16:21:59.356Z,18.17
2022-09-02T16:24:26.418Z,18.14
2022-09-02T16:26:53.454Z,18.10
2022-09-02T16:29:20.930Z,18.05
2022-09-02T16:34:36.286Z,17.95
2022-09-02T16:37:03.097Z,17.93
2022-09-02T16:39:30.063Z,17.88
2022-09-02T16:41:58.245Z,17.83
2022-09-02T16:44:26.028Z,17.81
2022-09-02T16:46:53.317Z,17.74
2022-09-02T16:49:22.128Z,17.69
2022-09-02T16:51:57.826Z,17.64
2022-09-02T16:54:30.791Z,17.54
2022-09-02T16:56:59.381Z,17.50
2022-09-02T16:59:26.391Z,17.45
2022-09-02T17:01:53.262Z,17.38
2022-09-02T17:04:20.127Z,17.34
2022-09-02T17:06:47.268Z,17.33
2022-09-02T17:09:14.137Z,17.25
2022-09-02T17:11:42.639Z,17.25
2022-09-02T17:14:16.562Z,17.24
2022-09-02T17:16:49.075Z,17.21
2022-09-02T17:19:21.795Z,17.18
2022-09-02T17:21:54.240Z,17.18
2022-09-02T17:24:24.655Z,17.14
2022-09-02T17:26:54.459Z,17.09
2022-09-02T17:32:10.247Z,17.01
2022-09-02T17:34:37.212Z,16.98
2022-09-02T17:37:05.330Z,16.97
2022-09-02T17:39:34.234Z,16.96
2022-09-02T17:42:02.375Z,16.92
2022-09-02T17:44:35.866Z,16.89
2022-09-02T17:47:08.527Z,16.87
2022-09-02T17:49:36.840Z,16.88
2022-09-02T17:52:05.489Z,16.83
2022-09-02T17:54:32.343Z,16.82
2022-09-02T17:57:17.423Z,16.77
2022-09-02T18:00:10.822Z,16.73
2022-09-02T18:03:13.440Z,16.70
2022-09-02T18:06:09.348Z,16.62
2022-09-02T18:08:42.122Z,16.60
2022-09-02T18:11:09.219Z,16.58
2022-09-02T18:13:54.214Z,16.56
2022-09-02T18:16:42.284Z,16.55
2022-09-02T18:19:24.795Z,16.54
2022-09-02T18:22:12.971Z,16.50
2022-09-02T18:24:48.570Z,16.47
2022-09-02T18:27:27.865Z,16.41
2022-09-02T18:30:03.646Z,16.31
2022-09-02T18:32:59.125Z,16.28
2022-09-02T18:35:41.338Z,16.24
2022-09-02T18:38:49.588Z,16.20
2022-09-02T18:41:26.634Z,16.21
2022-09-02T18:44:24.922Z,16.19
2022-09-02T18:46:59.155Z,16.18
2022-09-02T18:49:28.539Z,16.17
2022-09-02T18:51:59.856Z,16.13
2022-09-02T18:54:46.862Z,16.08
2022-09-02T18:57:14.871Z,16.09
2022-09-02T18:59:56.315Z,16.07
2022-09-02T19:02:26.591Z,16.06
2022-09-02T19:04:57.318Z,16.03
2022-09-02T19:07:43.688Z,16.03
2022-09-02T19:10:10.667Z,15.98
2022-09-02T19:12:40.389Z,15.98
2022-09-02T19:15:09.895Z,15.97
2022-09-02T19:17:40.264Z,15.91
2022-09-02T19:20:08.590Z,15.90
2022-09-02T19:22:46.199Z,15.83
2022-09-02T19:25:17.663Z,15.82
2022-09-02T19:27:46.347Z,15.77
2022-09-02T19:30:18.970Z,15.72
2022-09-02T19:32:50.343Z,15.71
2022-09-02T19:35:24.895Z,15.70
2022-09-02T19:37:53.819Z,15.68
2022-09-02T19:40:23.541Z,15.63
2022-09-02T19:42:52.784Z,15.60
2022-09-02T19:45:21.825Z,15.57
2022-09-02T19:48:06.419Z,15.54
2022-09-02T19:50:42.191Z,15.52
2022-09-02T19:53:19.453Z,15.49
2022-09-02T19:55:46.826Z,15.47
2022-09-02T19:58:14.024Z,15.44
2022-09-02T20:00:45.013Z,15.41
2022-09-02T20:03:13.081Z,15.37
2022-09-02T20:05:40.812Z,15.36
2022-09-02T20:08:10.847Z,15.33
2022-09-02T20:10:40.924Z,15.28
2022-09-02T20:13:12.334Z,15.22
2022-09-02T20:15:40.039Z,15.21
2022-09-02T20:18:15.568Z,15.17
2022-09-02T20:20:47.176Z,15.15
2022-09-02T20:23:17.458Z,15.15
2022-09-02T20:26:15.066Z,15.10
2022-09-02T20:28:56.290Z,15.04
2022-09-02T20:31:43.520Z,14.97
2022-09-02T20:34:17.970Z,14.93
2022-09-02T20:37:02.363Z,14.90
2022-09-02T20:39:38.108Z,14.90
2022-09-02T20:42:29.509Z,14.89
2022-09-02T20:45:08.406Z,14.80
2022-09-02T20:48:25.354Z,14.75
2022-09-02T20:51:12.592Z,14.72
2022-09-02T20:54:04.656Z,14.70
2022-09-02T20:56:59.782Z,14.68
2022-09-02T20:59:48.011Z,14.66
2022-09-02T21:02:20.303Z,14.64
2022-09-02T21:04:53.171Z,14.63
2022-09-02T21:07:26.442Z,14.61
2022-09-02T21:10:06.747Z,14.57
2022-09-02T21:12:43.923Z,14.52
2022-09-02T21:15:30.211Z,14.51
2022-09-02T21:18:09.255Z,14.47
2022-09-02T21:21:03.895Z,14.44
2022-09-02T21:23:35.423Z,14.43
2022-09-02T21:26:18.485Z,14.42
2022-09-02T21:28:56.754Z,14.38
2022-09-02T21:31:31.474Z,14.37
2022-09-02T21:34:05.157Z,14.37
2022-09-02T21:36:36.986Z,14.38
2022-09-02T21:39:10.098Z,14.35
2022-09-02T21:41:42.087Z,14.33
2022-09-02T21:44:40.747Z,14.30
2022-09-02T21:47:38.678Z,14.25
2022-09-02T21:51:00.132Z,14.20
2022-09-02T21:54:15.020Z,14.15
2022-09-02T21:57:15.718Z,14.12
2022-09-02T22:00:08.686Z,14.07
2022-09-02T22:02:48.717Z,14.04
2022-09-02T22:05:26.012Z,13.99
2022-09-02T22:08:03.187Z,13.97
2022-09-02T22:10:50.058Z,13.93
2022-09-02T22:13:17.116Z,13.89
2022-09-02T22:16:05.073Z,13.87
2022-09-02T22:18:40.368Z,13.83
2022-09-02T22:21:25.719Z,13.79
2022-09-02T22:23:55.663Z,13.75
2022-09-02T22:27:04.884Z,13.69
2022-09-02T22:29:41.196Z,13.65
2022-09-02T22:32:12.433Z,13.62
2022-09-02T22:34:50.619Z,13.58
2022-09-02T22:37:25.995Z,13.55
2022-09-02T22:39:56.586Z,13.52
2022-09-02T22:42:33.277Z,13.50
2022-09-02T22:45:29.078Z,13.46
2022-09-02T22:48:21.639Z,13.43
2022-09-02T22:51:18.886Z,13.41
2022-09-02T22:53:48.090Z,13.40
2022-09-02T22:56:26.135Z,13.37
2022-09-02T22:59:01.609Z,13.34
2022-09-02T23:01:43.657Z,13.32
2022-09-02T23:04:25.071Z,13.30
2022-09-02T23:07:05.035Z,13.29
2022-09-02T23:09:33.868Z,13.28
2022-09-02T23:12:09.276Z,13.26
2022-09-02T23:15:10.394Z,13.22
2022-09-02T23:17:43.183Z,13.20
2022-09-02T23:20:26.997Z,13.22
2022-09-02T23:23:22.866Z,13.20
2022-09-02T23:26:19.901Z,13.18
2022-09-02T23:29:08.099Z,13.17
2022-09-02T23:31:50.765Z,13.13
2022-09-02T23:34:35.195Z,13.09
2022-09-02T23:37:25.190Z,13.09
2022-09-02T23:40:22.513Z,13.08
2022-09-02T23:42:49.591Z,13.10
2022-09-02T23:45:23.821Z,13.12
2022-09-02T23:48:06.600Z,13.10
2022-09-02T23:51:10.547Z,13.08
2022-09-02T23:53:47.586Z,13.09
2022-09-02T23:56:33.719Z,13.08
2022-09-02T23:59:12.831Z,13.07
